Time;durP1;ratioP1;P1;durP2;ratioP2;P2;SDS_P1;SDS_P2;PMS_P1;PMS_P2;Temp;Humidity;BMP_temperature;BMP_pressure;BME280_temperature;BME280_humidity;BME280_pressure;Samples;Min_cycle;Max_cycle;Signal;HPM_P1;HPM_P2
2022/08/13 00:00:36;;;;;;;1.92;1.52;;;21.20;95.10;;;;;;5068118;28;20229;-68
2022/08/13 00:03:18;;;;;;;1.60;1.40;;;21.10;95.40;;;;;;5068130;28;20199;-68
2022/08/13 00:06:08;;;;;;;1.50;1.40;;;21.10;96.00;;;;;;5064044;28;20222;-68
2022/08/13 00:08:48;;;;;;;4.90;2.77;;;21.00;95.80;;;;;;5057713;28;20252;-69
2022/08/13 00:12:56;;;;;;;4.07;2.10;;;20.90;95.80;;;;;;5064158;28;20225;-68
2022/08/13 00:14:25;;;;;;;2.07;1.87;;;20.90;96.00;;;;;;5067059;28;20198;-67
2022/08/13 00:17:05;;;;;;;2.23;1.80;;;20.80;95.80;;;;;;5067270;28;20206;-67
2022/08/13 00:19:38;;;;;;;3.30;1.70;;;20.80;96.30;;;;;;5067015;28;20700;-68
2022/08/13 00:22:07;;;;;;;2.70;1.63;;;20.60;96.70;;;;;;5068325;28;20225;-66
2022/08/13 00:24:55;;;;;;;1.83;1.70;;;20.50;96.70;;;;;;5060105;28;20283;-68
2022/08/13 00:27:24;;;;;;;2.30;1.80;;;20.50;96.30;;;;;;5066790;28;20189;-67
2022/08/13 00:29:54;;;;;;;1.90;1.50;;;20.60;96.40;;;;;;5069190;28;20214;-68
2022/08/13 00:32:29;;;;;;;2.43;1.60;;;20.70;96.00;;;;;;5064234;28;20191;-67
2022/08/13 00:35:05;;;;;;;2.20;1.57;;;20.80;95.80;;;;;;5066244;28;20237;-68
2022/08/13 00:37:37;;;;;;;1.60;1.50;;;20.90;95.70;;;;;;5066027;28;20194;-68
2022/08/13 00:40:19;;;;;;;2.20;1.93;;;21.00;95.60;;;;;;5066678;28;20191;-68
2022/08/13 00:43:02;;;;;;;2.03;1.60;;;21.00;95.80;;;;;;5066363;28;20465;-68
2022/08/13 00:45:32;;;;;;;2.07;1.43;;;20.90;95.80;;;;;;5046277;28;20261;-69
2022/08/13 00:50:48;;;;;;;2.97;1.80;;;20.80;96.00;;;;;;5058802;28;20191;-68
2022/08/13 00:53:17;;;;;;;1.57;1.47;;;20.70;96.10;;;;;;5060329;28;20202;-68
2022/08/13 00:55:58;;;;;;;2.00;1.60;;;20.70;96.30;;;;;;5058472;28;20631;-68
2022/08/13 00:58:27;;;;;;;1.70;1.60;;;20.60;96.40;;;;;;5066076;28;20201;-68
2022/08/13 01:01:00;;;;;;;2.83;1.63;;;20.70;96.30;;;;;;5063038;28;20669;-68
2022/08/13 01:03:31;;;;;;;2.17;1.60;;;20.70;96.30;;;;;;5063901;28;20615;-68
2022/08/13 01:06:18;;;;;;;2.43;1.70;;;20.60;96.70;;;;;;5065325;28;20689;-68
2022/08/13 01:08:49;;;;;;;1.60;1.50;;;20.50;96.90;;;;;;5054474;28;20755;-68
2022/08/13 01:11:22;;;;;;;1.43;1.30;;;20.30;97.00;;;;;;5051263;28;20617;-68
2022/08/13 01:13:51;;;;;;;2.20;1.60;;;20.20;97.30;;;;;;5061613;28;20200;-69
2022/08/13 01:16:19;;;;;;;1.53;1.43;;;20.10;97.50;;;;;;5068976;28;20226;-68
2022/08/13 01:18:52;;;;;;;2.93;1.60;;;19.90;97.60;;;;;;5051056;28;20209;-68
2022/08/13 01:21:23;;;;;;;1.70;1.60;;;19.80;98.00;;;;;;5051000;28;20202;-68
2022/08/13 01:24:11;;;;;;;2.07;1.63;;;19.80;97.90;;;;;;5050626;28;20288;-68
2022/08/13 01:26:40;;;;;;;2.10;1.67;;;19.80;98.00;;;;;;5053426;28;20218;-68
2022/08/13 01:29:16;;;;;;;1.80;1.60;;;19.90;97.80;;;;;;5061106;28;20288;-68
2022/08/13 01:31:44;;;;;;;3.40;1.60;;;19.80;98.10;;;;;;5051066;28;20281;-68
2022/08/13 01:34:12;;;;;;;1.83;1.60;;;19.80;98.20;;;;;;5051029;28;20267;-68
2022/08/13 01:36:53;;;;;;;2.93;1.70;;;19.80;98.50;;;;;;5050721;28;20234;-67
2022/08/13 01:39:27;;;;;;;2.47;1.60;;;19.60;98.90;;;;;;5051138;28;20724;-69
2022/08/13 01:42:13;;;;;;;2.07;1.87;;;19.70;98.90;;;;;;5051019;28;20202;-68
2022/08/13 01:44:45;;;;;;;1.83;1.47;;;19.50;99.00;;;;;;5050786;28;20637;-69
2022/08/13 01:50:29;;;;;;;1.93;1.73;;;19.30;99.40;;;;;;5050861;28;20253;-69
2022/08/13 01:53:04;;;;;;;1.70;1.60;;;19.10;99.70;;;;;;5050651;28;20237;-68
2022/08/13 01:55:55;;;;;;;1.63;1.53;;;19.00;99.90;;;;;;5033126;28;20698;-68
2022/08/13 01:58:42;;;;;;;1.80;1.60;;;18.90;99.90;;;;;;5050307;28;20249;-66
2022/08/13 02:01:30;;;;;;;2.30;1.83;;;18.80;99.90;;;;;;5050136;28;20752;-68
2022/08/13 02:04:13;;;;;;;2.57;1.90;;;18.80;99.90;;;;;;5050517;28;20202;-68
2022/08/13 02:06:50;;;;;;;2.23;1.80;;;18.80;99.90;;;;;;5050057;28;20218;-68
2022/08/13 02:09:23;;;;;;;2.90;1.70;;;18.80;99.90;;;;;;5049947;28;20219;-68
2022/08/13 02:12:13;;;;;;;2.00;1.80;;;18.70;99.90;;;;;;5050554;28;20195;-68
2022/08/13 02:15:02;;;;;;;2.27;1.90;;;18.60;99.90;;;;;;5050082;28;20219;-67
2022/08/13 02:17:33;;;;;;;1.73;1.60;;;18.50;99.90;;;;;;5049787;28;20809;-67
2022/08/13 02:20:19;;;;;;;2.20;1.60;;;18.40;99.90;;;;;;5050320;28;20207;-69
2022/08/13 02:22:49;;;;;;;2.43;1.80;;;18.40;99.90;;;;;;5032542;28;20195;-68
2022/08/13 02:25:20;;;;;;;1.80;1.63;;;18.40;99.90;;;;;;5049824;28;20325;-67
2022/08/13 02:27:48;;;;;;;2.03;1.83;;;18.40;99.90;;;;;;5034386;28;20200;-68
2022/08/13 02:30:29;;;;;;;1.90;1.70;;;18.30;99.90;;;;;;5050256;28;20218;-68
2022/08/13 02:33:00;;;;;;;2.87;2.20;;;18.20;99.90;;;;;;5050198;28;20205;-68
2022/08/13 02:35:28;;;;;;;3.07;1.97;;;18.20;99.90;;;;;;5049707;28;20211;-68
2022/08/13 02:38:14;;;;;;;2.50;2.13;;;18.30;99.90;;;;;;5049751;28;20190;-68
2022/08/13 02:43:43;;;;;;;2.17;1.97;;;18.40;99.90;;;;;;5049954;28;20252;-68
2022/08/13 02:46:25;;;;;;;2.00;1.83;;;18.40;99.90;;;;;;5049323;28;20382;-67
2022/08/13 02:48:52;;;;;;;2.47;1.60;;;18.30;99.90;;;;;;5050012;28;20214;-68
2022/08/13 02:51:22;;;;;;;1.63;1.50;;;18.20;99.90;;;;;;5050314;28;20236;-67
2022/08/13 02:54:10;;;;;;;1.93;1.80;;;18.20;99.90;;;;;;5050099;28;20206;-68
2022/08/13 02:56:38;;;;;;;4.00;2.10;;;18.20;99.90;;;;;;5049581;28;20215;-67
2022/08/13 02:59:10;;;;;;;1.80;1.70;;;18.20;99.90;;;;;;5049817;28;20199;-67
2022/08/13 03:01:58;;;;;;;2.10;1.90;;;18.00;99.90;;;;;;5050050;28;20195;-67
2022/08/13 03:04:25;;;;;;;2.40;2.20;;;18.00;99.90;;;;;;5049669;28;20293;-68
2022/08/13 03:06:59;;;;;;;3.13;2.00;;;17.90;99.90;;;;;;5049749;28;20253;-68
2022/08/13 03:09:28;;;;;;;2.27;1.80;;;17.90;99.90;;;;;;5049808;28;20206;-67
2022/08/13 03:12:02;;;;;;;3.30;1.80;;;17.80;99.90;;;;;;5039553;28;20238;-68
2022/08/13 03:14:32;;;;;;;2.60;2.10;;;17.80;99.90;;;;;;5053854;28;20198;-68
2022/08/13 03:16:58;;;;;;;2.20;2.00;;;17.90;99.90;;;;;;5053414;28;20198;-67
2022/08/13 03:19:25;;;;;;;3.70;2.00;;;17.90;99.90;;;;;;5053570;28;20195;-67
2022/08/13 03:21:52;;;;;;;2.53;2.20;;;17.90;99.90;;;;;;5053501;28;20685;-68
2022/08/13 03:24:21;;;;;;;2.63;2.17;;;18.00;99.90;;;;;;5053789;28;20260;-67
2022/08/13 03:26:58;;;;;;;2.50;2.30;;;18.00;99.90;;;;;;5073500;28;20321;-67
2022/08/13 03:29:25;;;;;;;1.93;1.80;;;18.10;99.90;;;;;;5056959;28;20594;-68
2022/08/13 03:32:17;;;;;;;3.03;1.97;;;18.20;99.90;;;;;;5053380;28;20199;-67
2022/08/13 03:34:56;;;;;;;2.77;2.07;;;18.30;99.90;;;;;;5053127;28;20265;-68
2022/08/13 03:37:24;;;;;;;2.70;1.90;;;18.20;99.90;;;;;;5052977;28;20194;-68
2022/08/13 03:39:52;;;;;;;3.33;1.93;;;18.00;99.90;;;;;;5053152;28;20245;-68
2022/08/13 03:42:18;;;;;;;2.13;1.90;;;17.80;99.90;;;;;;5053189;28;20191;-67
2022/08/13 03:45:06;;;;;;;2.87;2.20;;;17.60;99.90;;;;;;5052955;28;20268;-67
2022/08/13 03:47:38;;;;;;;2.17;1.80;;;17.50;99.90;;;;;;5053076;28;20198;-68
2022/08/13 03:50:08;;;;;;;5.07;2.53;;;17.40;99.90;;;;;;5053000;28;20225;-68
2022/08/13 03:52:35;;;;;;;2.93;2.30;;;17.30;99.90;;;;;;5062240;28;20197;-68
2022/08/13 03:55:09;;;;;;;2.23;2.03;;;17.20;99.90;;;;;;5069070;28;20214;-68
2022/08/13 03:57:41;;;;;;;3.30;1.97;;;17.20;99.90;;;;;;5053137;28;20205;-68
2022/08/13 04:00:29;;;;;;;2.20;2.00;;;17.20;99.90;;;;;;5053116;28;20202;-68
2022/08/13 04:02:57;;;;;;;2.30;2.00;;;17.20;99.90;;;;;;5053258;28;20199;-68
2022/08/13 04:05:25;;;;;;;2.03;1.90;;;17.20;99.90;;;;;;5052756;28;20219;-67
2022/08/13 04:08:12;;;;;;;2.10;1.90;;;17.20;99.90;;;;;;5052992;28;20651;-69
2022/08/13 04:10:41;;;;;;;3.83;2.00;;;17.30;99.90;;;;;;5053817;28;20250;-67
2022/08/13 04:13:19;;;;;;;2.40;2.10;;;17.30;99.90;;;;;;5053353;28;20277;-68
2022/08/13 04:16:08;;;;;;;2.40;2.20;;;17.30;99.90;;;;;;5052525;28;20714;-68
2022/08/13 04:18:36;;;;;;;2.20;2.00;;;17.20;99.90;;;;;;5057067;28;20210;-68
2022/08/13 04:21:05;;;;;;;2.30;2.10;;;17.10;99.90;;;;;;5053825;28;20238;-67
2022/08/13 04:23:33;;;;;;;2.23;2.03;;;17.10;99.90;;;;;;5051483;28;20213;-68
2022/08/13 04:26:03;;;;;;;2.10;1.90;;;17.10;99.90;;;;;;5052157;28;20293;-68
2022/08/13 04:28:30;;;;;;;2.83;2.10;;;17.10;99.90;;;;;;5052067;28;20199;-67
2022/08/13 04:31:00;;;;;;;3.07;2.10;;;17.40;99.90;;;;;;5052287;28;20244;-68
2022/08/13 04:33:27;;;;;;;7.30;2.30;;;17.60;99.90;;;;;;5060462;28;20588;-68
2022/08/13 04:36:14;;;;;;;3.07;1.90;;;17.60;99.90;;;;;;5052020;28;20219;-67
2022/08/13 04:38:44;;;;;;;2.00;1.80;;;17.50;99.90;;;;;;5034703;28;20225;-67
2022/08/13 04:41:11;;;;;;;4.33;2.00;;;17.30;99.90;;;;;;5051710;28;20670;-68
2022/08/13 04:43:41;;;;;;;2.40;1.93;;;17.20;99.90;;;;;;5053438;28;20191;-68
2022/08/13 04:46:07;;;;;;;2.43;2.20;;;17.30;99.90;;;;;;5051827;28;20214;-67
2022/08/13 04:48:35;;;;;;;3.27;2.20;;;17.40;99.90;;;;;;5051927;28;20195;-67
2022/08/13 04:51:05;;;;;;;2.40;2.00;;;17.60;99.90;;;;;;5052044;28;20217;-67
2022/08/13 04:53:36;;;;;;;2.90;2.33;;;17.60;99.90;;;;;;5051728;28;20195;-68
2022/08/13 04:56:16;;;;;;;2.93;2.23;;;17.70;99.90;;;;;;5051872;28;20211;-67
2022/08/13 04:58:45;;;;;;;2.20;1.97;;;17.70;99.90;;;;;;5052008;28;20282;-67
2022/08/13 05:01:13;;;;;;;2.50;2.20;;;17.70;99.90;;;;;;5057849;28;20277;-67
2022/08/13 05:03:59;;;;;;;3.13;2.13;;;17.80;99.90;;;;;;5051785;28;20248;-67
2022/08/13 05:06:46;;;;;;;2.73;2.10;;;17.80;99.90;;;;;;5036421;28;20265;-68
2022/08/13 05:09:17;;;;;;;2.63;2.30;;;17.70;99.90;;;;;;5051443;28;20694;-66
2022/08/13 05:11:44;;;;;;;2.20;1.97;;;17.60;99.90;;;;;;5051331;28;20191;-68
2022/08/13 05:14:28;;;;;;;2.20;2.00;;;17.60;99.90;;;;;;5051192;28;20651;-66
2022/08/13 05:16:59;;;;;;;2.30;2.10;;;17.70;99.90;;;;;;5051118;28;20202;-68
2022/08/13 05:19:27;;;;;;;2.70;2.23;;;18.00;99.90;;;;;;5051434;28;20282;-67
2022/08/13 05:22:01;;;;;;;2.80;2.13;;;18.30;99.90;;;;;;5051232;28;20279;-66
2022/08/13 05:24:28;;;;;;;2.77;2.20;;;18.40;99.90;;;;;;5051102;28;20248;-68
2022/08/13 05:27:14;;;;;;;2.93;2.40;;;18.40;99.90;;;;;;5051207;28;20265;-68
2022/08/13 05:29:43;;;;;;;2.97;2.20;;;18.50;99.90;;;;;;5051010;28;20245;-67
2022/08/13 05:32:30;;;;;;;2.17;1.97;;;18.50;99.90;;;;;;5051035;28;20194;-68
2022/08/13 05:35:11;;;;;;;2.60;2.27;;;18.50;99.90;;;;;;5054886;28;20209;-67
2022/08/13 05:37:38;;;;;;;5.70;2.57;;;18.40;99.90;;;;;;5070646;28;20195;-68
2022/08/13 05:40:25;;;;;;;6.97;3.07;;;18.40;99.90;;;;;;5069772;28;20194;-68
2022/08/13 05:43:09;;;;;;;3.17;2.10;;;18.60;99.90;;;;;;5058388;28;20555;-68
2022/08/13 05:45:36;;;;;;;4.50;2.63;;;18.80;99.90;;;;;;5050338;28;20249;-68
2022/08/13 05:48:30;;;;;;;5.30;2.80;;;18.80;99.90;;;;;;5050860;28;20202;-68
2022/08/13 05:50:59;;;;;;;4.07;2.60;;;19.00;99.90;;;;;;5050436;28;20237;-67
2022/08/13 05:53:27;;;;;;;6.33;2.90;;;19.10;99.90;;;;;;5050738;28;20658;-68
2022/08/13 05:56:14;;;;;;;3.50;2.90;;;19.50;99.90;;;;;;5050335;28;20260;-68
2022/08/13 05:58:44;;;;;;;3.47;2.80;;;19.70;99.90;;;;;;5050528;28;20241;-69
2022/08/13 06:04:02;;;;;;;8.07;3.00;;;19.80;99.90;;;;;;5050573;28;20205;-66
2022/08/13 06:06:50;;;;;;;4.87;2.80;;;19.70;99.90;;;;;;5050116;28;20245;-68
2022/08/13 06:09:18;;;;;;;3.80;2.67;;;19.70;99.90;;;;;;5050488;28;20198;-68
2022/08/13 06:11:49;;;;;;;4.37;2.87;;;19.80;99.90;;;;;;5050282;28;20879;-68
2022/08/13 06:14:36;;;;;;;3.63;2.57;;;20.00;99.90;;;;;;5050113;28;20195;-68
2022/08/13 06:17:05;;;;;;;3.33;2.70;;;20.20;99.90;;;;;;5050336;28;20203;-68
2022/08/13 06:19:43;;;;;;;3.47;2.70;;;20.20;99.90;;;;;;5050318;28;20202;-68
2022/08/13 06:22:19;;;;;;;3.00;2.70;;;20.20;99.90;;;;;;5050147;28;20736;-69
2022/08/13 06:24:47;;;;;;;3.40;2.40;;;20.30;99.90;;;;;;5049543;28;20205;-67
2022/08/13 06:27:23;;;;;;;3.10;2.70;;;20.30;99.90;;;;;;5050299;28;20198;-68
2022/08/13 06:30:11;;;;;;;3.57;2.90;;;20.40;99.90;;;;;;5050198;28;20210;-68
2022/08/13 06:32:41;;;;;;;3.60;3.00;;;20.60;99.90;;;;;;5050254;28;20247;-67
2022/08/13 06:35:31;;;;;;;3.73;3.10;;;20.70;99.90;;;;;;5050007;28;20764;-68
2022/08/13 06:38:13;;;;;;;3.20;2.90;;;20.80;99.90;;;;;;5050307;28;20195;-68
2022/08/13 06:40:48;;;;;;;3.37;3.07;;;20.70;99.90;;;;;;5049925;28;20261;-68
2022/08/13 06:43:17;;;;;;;6.37;3.87;;;20.80;99.90;;;;;;5049947;28;20252;-68
2022/08/13 06:45:47;;;;;;;5.27;3.60;;;20.80;99.90;;;;;;5049946;28;20277;-68
2022/08/13 06:48:16;;;;;;;4.97;3.10;;;20.90;99.90;;;;;;5054080;28;20278;-68
2022/08/13 06:51:01;;;;;;;5.07;3.43;;;21.00;99.90;;;;;;5054023;28;20301;-68
2022/08/13 06:53:29;;;;;;;5.38;4.40;;;21.10;99.90;;;;;;5054122;28;20191;-68
2022/08/13 06:56:21;;;;;;;7.43;4.78;;;21.30;99.90;;;;;;5053878;28;20368;-68
2022/08/13 06:59:03;;;;;;;5.33;4.77;;;21.40;99.90;;;;;;5053728;28;20588;-68
2022/08/13 07:01:42;;;;;;;5.18;4.50;;;21.60;99.90;;;;;;5053785;28;20197;-69
2022/08/13 07:04:29;;;;;;;6.22;3.90;;;22.00;99.90;;;;;;5053826;28;20244;-69
2022/08/13 07:06:57;;;;;;;4.78;3.42;;;22.70;99.90;;;;;;5052909;28;20264;-68
2022/08/13 07:09:24;;;;;;;11.50;3.70;;;23.30;99.90;;;;;;5053752;28;20197;-68
2022/08/13 07:11:58;;;;;;;6.13;3.65;;;23.90;99.90;;;;;;5036749;28;20198;-68
2022/08/13 07:14:26;;;;;;;6.25;3.28;;;24.40;99.90;;;;;;5053523;28;20217;-68
2022/08/13 07:16:54;;;;;;;3.30;3.00;;;25.00;99.90;;;;;;5052860;28;20219;-68
2022/08/13 07:19:22;;;;;;;6.13;3.20;;;25.60;99.90;;;;;;5053362;28;20195;-68
2022/08/13 07:22:05;;;;;;;4.53;2.70;;;26.10;99.90;;;;;;5053649;28;20191;-69
2022/08/13 07:24:32;;;;;;;3.03;2.70;;;26.50;99.90;;;;;;5053201;28;20226;-69
2022/08/13 07:27:18;;;;;;;3.55;2.60;;;26.80;99.80;;;;;;5053453;28;20191;-69
2022/08/13 07:29:49;;;;;;;2.72;2.33;;;26.90;98.10;;;;;;5053027;28;20218;-68
2022/08/13 07:32:19;;;;;;;6.65;2.60;;;27.20;97.80;;;;;;5053317;28;20203;-68
2022/08/13 07:34:58;;;;;;;4.40;2.45;;;27.10;97.10;;;;;;5052829;28;20222;-67
2022/08/13 07:37:26;;;;;;;3.00;2.08;;;27.40;96.70;;;;;;5053303;28;20198;-68
2022/08/13 07:39:52;;;;;;;2.75;2.00;;;27.60;96.00;;;;;;5052926;28;20655;-69
2022/08/13 07:42:23;;;;;;;8.00;2.33;;;27.70;95.00;;;;;;5053148;28;20195;-69
2022/08/13 07:44:58;;;;;;;4.93;2.08;;;27.90;95.40;;;;;;5055096;28;20214;-69
2022/08/13 07:47:50;;;;;;;3.38;1.85;;;27.90;94.20;;;;;;5072943;28;20194;-69
2022/08/13 07:50:37;;;;;;;2.65;1.90;;;28.00;94.10;;;;;;5072687;28;20748;-68
2022/08/13 07:53:07;;;;;;;28.33;3.70;;;28.00;94.50;;;;;;5040303;28;20187;-68
2022/08/13 07:55:35;;;;;;;6.38;2.40;;;28.00;94.50;;;;;;5052570;28;20233;-68
2022/08/13 07:58:27;;;;;;;5.90;2.53;;;28.00;94.30;;;;;;5052904;28;20203;-69
2022/08/13 08:00:57;;;;;;;5.18;2.08;;;28.00;94.60;;;;;;5052346;28;20200;-68
2022/08/13 08:03:38;;;;;;;2.60;1.90;;;28.00;92.80;;;;;;5052589;28;20729;-68
2022/08/13 08:06:18;;;;;;;1.80;1.60;;;28.00;92.70;;;;;;5052412;28;20210;-69
2022/08/13 08:08:55;;;;;;;1.80;1.70;;;27.90;92.20;;;;;;5052363;28;20202;-68
2022/08/13 08:14:18;;;;;;;1.92;1.73;;;27.60;92.70;;;;;;5052491;28;20582;-68
2022/08/13 08:17:00;;;;;;;3.97;1.88;;;27.60;92.70;;;;;;5052130;28;20311;-69
2022/08/13 08:19:47;;;;;;;2.10;1.77;;;27.60;92.30;;;;;;5061691;28;20240;-69
2022/08/13 08:22:34;;;;;;;3.45;1.90;;;27.70;92.50;;;;;;5072528;28;20247;-69
2022/08/13 08:25:03;;;;;;;2.60;1.92;;;27.80;92.50;;;;;;5051902;28;20590;-69
2022/08/13 08:27:47;;;;;;;1.80;1.70;;;27.90;92.30;;;;;;5052209;28;20213;-69
2022/08/13 08:30:33;;;;;;;4.57;1.92;;;28.10;92.00;;;;;;5052273;28;20211;-69
2022/08/13 08:33:01;;;;;;;3.25;2.20;;;28.10;92.20;;;;;;5037612;28;20191;-69
2022/08/13 08:35:38;;;;;;;2.55;1.90;;;28.20;92.20;;;;;;5051919;28;20214;-69
2022/08/13 08:44:18;;;;;;;1.92;1.80;;;28.30;91.70;;;;;;5065987;28;20239;-69
2022/08/13 08:46:46;;;;;;;1.95;1.70;;;28.30;91.70;;;;;;5071611;28;20304;-69
2022/08/13 08:49:15;;;;;;;3.67;1.73;;;28.30;91.50;;;;;;5072041;28;20644;-70
2022/08/13 08:52:02;;;;;;;1.75;1.65;;;28.10;91.90;;;;;;5063495;28;20406;-69
2022/08/13 08:54:30;;;;;;;4.18;1.90;;;28.20;91.70;;;;;;5051974;28;20194;-69
2022/08/13 08:56:58;;;;;;;1.85;1.75;;;28.40;91.80;;;;;;5051734;28;20249;-70
2022/08/13 08:59:28;;;;;;;2.47;1.83;;;28.60;91.60;;;;;;5051777;28;20249;-69
2022/08/13 09:01:56;;;;;;;2.50;1.90;;;28.60;91.50;;;;;;5051439;28;20633;-70
2022/08/13 09:04:29;;;;;;;2.85;1.80;;;28.60;91.40;;;;;;5034804;28;20205;-69
2022/08/13 09:07:17;;;;;;;2.08;1.88;;;28.70;91.40;;;;;;5051728;28;20203;-69
2022/08/13 09:09:51;;;;;;;2.03;1.83;;;28.70;91.20;;;;;;5051247;28;20202;-68
2022/08/13 09:12:23;;;;;;;2.58;1.80;;;28.70;91.80;;;;;;5051914;28;20205;-69
2022/08/13 09:14:56;;;;;;;4.05;1.83;;;28.90;91.30;;;;;;5051177;28;20186;-70
2022/08/13 09:17:24;;;;;;;2.03;1.83;;;28.90;91.30;;;;;;5051775;28;20310;-70
2022/08/13 09:20:12;;;;;;;4.70;1.90;;;28.80;91.10;;;;;;5051392;28;20199;-69
2022/08/13 09:22:40;;;;;;;2.10;1.90;;;28.90;91.40;;;;;;5051565;28;20190;-69
2022/08/13 09:25:18;;;;;;;3.45;1.95;;;29.00;91.40;;;;;;5051019;28;20211;-70
2022/08/13 09:27:46;;;;;;;5.03;1.83;;;29.00;91.00;;;;;;5051361;28;20214;-69
2022/08/13 09:30:33;;;;;;;3.20;1.98;;;29.00;91.20;;;;;;5051027;28;20623;-69
2022/08/13 09:33:02;;;;;;;3.88;2.10;;;29.20;90.90;;;;;;5050743;28;20198;-70
2022/08/13 09:35:32;;;;;;;3.03;2.00;;;29.40;90.70;;;;;;5050973;28;20706;-70
2022/08/13 09:38:03;;;;;;;3.50;2.05;;;29.60;90.30;;;;;;5050742;28;20274;-70
2022/08/13 09:40:32;;;;;;;2.10;1.90;;;29.60;90.20;;;;;;5050937;28;20286;-69
2022/08/13 09:43:21;;;;;;;5.35;1.75;;;29.60;90.30;;;;;;5050616;28;20195;-69
2022/08/13 09:46:11;;;;;;;3.70;1.98;;;29.70;90.40;;;;;;5050480;28;20218;-68
2022/08/13 09:48:45;;;;;;;3.75;2.00;;;29.50;90.00;;;;;;5050936;28;20278;-69
2022/08/13 09:51:13;;;;;;;3.30;2.00;;;29.30;90.00;;;;;;5050567;28;20233;-69
2022/08/13 09:54:02;;;;;;;3.88;2.10;;;29.20;90.00;;;;;;5050912;28;20622;-69
2022/08/13 09:56:38;;;;;;;2.17;1.98;;;29.10;90.40;;;;;;5050552;28;20256;-70
2022/08/13 09:59:06;;;;;;;3.13;2.15;;;29.10;90.50;;;;;;5034067;28;20240;-69
2022/08/13 10:01:41;;;;;;;2.30;2.10;;;29.30;90.30;;;;;;5050571;28;20198;-69
2022/08/13 10:04:22;;;;;;;2.05;1.88;;;29.20;89.20;;;;;;5050535;28;20203;-69
2022/08/13 10:06:50;;;;;;;2.47;2.10;;;29.30;89.80;;;;;;5050178;28;20312;-70
2022/08/13 10:09:27;;;;;;;2.97;2.53;;;29.50;89.70;;;;;;5050257;28;20485;-70
2022/08/13 10:12:05;;;;;;;2.25;1.92;;;29.60;88.90;;;;;;5050084;28;20710;-71
2022/08/13 10:14:47;;;;;;;3.25;1.95;;;29.70;89.70;;;;;;5050018;28;20211;-70
2022/08/13 10:17:23;;;;;;;2.10;1.90;;;29.90;88.60;;;;;;5049991;28;20257;-69
2022/08/13 10:20:09;;;;;;;3.55;2.03;;;30.10;88.50;;;;;;5034570;28;20226;-69
2022/08/13 10:22:35;;;;;;;4.32;2.25;;;30.30;87.80;;;;;;5056165;28;20212;-69
2022/08/13 10:25:02;;;;;;;2.00;1.90;;;30.40;87.80;;;;;;5053533;28;20218;-69
2022/08/13 10:27:29;;;;;;;3.25;2.20;;;30.50;87.80;;;;;;5055818;28;20213;-69
2022/08/13 10:30:17;;;;;;;4.20;2.05;;;30.70;88.30;;;;;;5069950;28;20623;-69
2022/08/13 10:33:04;;;;;;;2.15;1.95;;;30.80;86.90;;;;;;5059192;28;20605;-69
2022/08/13 10:35:31;;;;;;;2.53;1.90;;;30.40;86.80;;;;;;5049751;28;20322;-69
2022/08/13 10:37:58;;;;;;;2.38;2.17;;;30.50;87.30;;;;;;5049934;28;20282;-69
2022/08/13 10:40:32;;;;;;;3.53;1.88;;;30.60;86.60;;;;;;5050253;28;20198;-70
2022/08/13 10:43:05;;;;;;;3.30;1.77;;;30.80;85.00;;;;;;5049757;28;20286;-70
2022/08/13 10:45:32;;;;;;;2.22;2.03;;;30.80;85.20;;;;;;5049558;28;20721;-70
2022/08/13 10:48:01;;;;;;;2.20;2.00;;;30.40;85.80;;;;;;5049909;28;20191;-70
2022/08/13 10:50:30;;;;;;;2.42;2.22;;;30.20;85.70;;;;;;5031781;28;20593;-69
2022/08/13 10:52:58;;;;;;;2.30;2.10;;;30.20;86.10;;;;;;5049857;28;20195;-69
2022/08/13 10:55:26;;;;;;;3.35;1.90;;;30.30;86.10;;;;;;5049334;28;20221;-70
2022/08/13 10:57:59;;;;;;;3.05;2.10;;;30.20;85.20;;;;;;5049448;28;20565;-69
2022/08/13 11:00:46;;;;;;;5.13;2.10;;;30.20;86.00;;;;;;5049629;28;20253;-68
2022/08/13 11:03:17;;;;;;;2.75;1.98;;;30.40;86.30;;;;;;5049858;28;20252;-70
2022/08/13 11:05:47;;;;;;;6.45;2.42;;;30.50;86.90;;;;;;5049320;28;20211;-70
2022/08/13 11:08:19;;;;;;;2.45;2.10;;;30.50;87.30;;;;;;5049498;28;20229;-70
2022/08/13 11:10:57;;;;;;;2.20;1.90;;;30.60;85.50;;;;;;5049383;28;20693;-70
2022/08/13 11:13:44;;;;;;;2.60;2.20;;;30.80;85.40;;;;;;5049792;28;20252;-70
2022/08/13 11:19:12;;;;;;;3.33;2.03;;;30.90;85.00;;;;;;5049175;28;20269;-69
2022/08/13 11:21:39;;;;;;;5.65;2.35;;;30.90;85.40;;;;;;5049790;28;20411;-69
2022/08/13 11:24:26;;;;;;;2.75;2.15;;;30.60;85.00;;;;;;5049495;28;20207;-69
2022/08/13 11:27:04;;;;;;;3.75;1.85;;;30.80;85.00;;;;;;5049434;28;20202;-69
2022/08/13 11:29:35;;;;;;;2.10;1.90;;;30.80;84.00;;;;;;5049594;28;20561;-69
2022/08/13 11:32:10;;;;;;;2.35;2.15;;;30.90;84.30;;;;;;5050584;28;20226;-68
2022/08/13 11:34:37;;;;;;;2.10;1.90;;;31.00;82.50;;;;;;5052630;28;20674;-69
2022/08/13 11:37:03;;;;;;;2.60;1.90;;;31.10;83.40;;;;;;5052991;28;20195;-69
2022/08/13 11:39:34;;;;;;;3.47;2.08;;;31.30;83.40;;;;;;5053075;28;20195;-70
2022/08/13 11:42:21;;;;;;;2.92;2.10;;;31.20;82.90;;;;;;5052803;28;20579;-69
2022/08/13 11:44:51;;;;;;;2.25;1.90;;;31.40;84.00;;;;;;5058500;28;20194;-69
2022/08/13 11:47:18;;;;;;;2.50;2.30;;;31.20;83.80;;;;;;5052811;28;20203;-69
2022/08/13 11:49:57;;;;;;;2.13;1.92;;;31.20;83.70;;;;;;5052688;28;20199;-70
2022/08/13 11:52:24;;;;;;;2.67;2.00;;;31.00;82.90;;;;;;5052656;28;20219;-69
2022/08/13 11:54:54;;;;;;;2.45;2.00;;;31.00;83.70;;;;;;5052095;28;20592;-69
2022/08/13 11:57:21;;;;;;;2.40;1.80;;;30.90;82.60;;;;;;5052854;28;20268;-68
2022/08/13 11:59:48;;;;;;;2.25;2.05;;;30.60;82.60;;;;;;5052522;28;20202;-69
2022/08/13 12:02:21;;;;;;;4.28;2.03;;;30.70;84.30;;;;;;5052622;28;20190;-70
2022/08/13 12:04:58;;;;;;;2.28;2.08;;;30.90;85.00;;;;;;5052379;28;20219;-70
2022/08/13 12:07:26;;;;;;;2.50;1.90;;;31.20;81.70;;;;;;5035022;28;20202;-70
2022/08/13 12:09:54;;;;;;;3.92;1.92;;;31.20;81.10;;;;;;5052285;28;20709;-70
2022/08/13 12:12:24;;;;;;;2.55;2.00;;;31.20;80.90;;;;;;5052408;28;20219;-69
2022/08/13 12:14:56;;;;;;;2.00;1.90;;;31.20;81.20;;;;;;5052104;28;20241;-70
2022/08/13 12:17:23;;;;;;;2.67;2.00;;;30.90;82.10;;;;;;5051992;28;20412;-70
2022/08/13 12:20:12;;;;;;;3.55;2.00;;;30.90;81.00;;;;;;5052245;28;20281;-69
2022/08/13 12:23:07;;;;;;;2.25;2.05;;;31.00;80.80;;;;;;5051992;28;20207;-69
2022/08/13 12:25:46;;;;;;;2.42;2.00;;;31.30;80.00;;;;;;5051725;28;20218;-70
2022/08/13 12:28:31;;;;;;;2.80;1.90;;;31.50;79.80;;;;;;5037050;28;20796;-69
2022/08/13 12:31:01;;;;;;;2.42;1.77;;;31.70;79.80;;;;;;5051647;28;20219;-70
2022/08/13 12:33:33;;;;;;;2.33;2.13;;;31.80;79.70;;;;;;5051926;28;20195;-70
2022/08/13 12:36:08;;;;;;;3.28;2.00;;;32.00;80.30;;;;;;5034549;28;20305;-68
2022/08/13 12:38:39;;;;;;;3.05;1.98;;;32.10;80.20;;;;;;5057254;28;20194;-69
2022/08/13 12:41:07;;;;;;;2.42;2.10;;;31.90;79.80;;;;;;5034281;28;20237;-67
2022/08/13 12:43:43;;;;;;;2.58;2.03;;;31.80;80.40;;;;;;5050745;28;20305;-69
2022/08/13 12:46:30;;;;;;;2.75;2.30;;;31.70;80.00;;;;;;5051582;28;20227;-69
2022/08/13 12:49:02;;;;;;;2.15;1.95;;;31.70;80.90;;;;;;5051715;28;20199;-69
2022/08/13 12:51:37;;;;;;;2.22;2.03;;;31.90;80.20;;;;;;5051597;28;20301;-70
2022/08/13 12:54:21;;;;;;;3.47;2.08;;;32.10;78.80;;;;;;5051314;28;20249;-69
2022/08/13 12:57:08;;;;;;;2.50;2.30;;;32.10;79.30;;;;;;5051537;28;20202;-69
2022/08/13 12:59:54;;;;;;;2.20;2.00;;;31.90;79.20;;;;;;5051557;28;20210;-69
2022/08/13 13:02:30;;;;;;;2.40;2.20;;;32.10;80.00;;;;;;5051611;28;20285;-70
2022/08/13 13:04:57;;;;;;;2.25;2.05;;;32.30;78.80;;;;;;5051219;28;20238;-70
2022/08/13 13:07:43;;;;;;;2.30;2.10;;;32.50;78.90;;;;;;5051636;28;20569;-69
2022/08/13 13:10:30;;;;;;;2.40;1.95;;;32.40;78.00;;;;;;5051507;28;20199;-69
2022/08/13 13:12:57;;;;;;;2.22;1.95;;;32.20;79.30;;;;;;5051085;28;20682;-69
2022/08/13 13:15:25;;;;;;;2.17;2.00;;;32.20;78.40;;;;;;5050935;28;20686;-68
2022/08/13 13:18:15;;;;;;;3.38;2.20;;;32.20;77.80;;;;;;5051175;28;20202;-69
2022/08/13 13:21:02;;;;;;;2.30;2.10;;;32.30;78.50;;;;;;5050791;28;20650;-69
2022/08/13 13:23:31;;;;;;;2.38;2.00;;;32.40;78.20;;;;;;5051034;28;20671;-69
2022/08/13 13:26:18;;;;;;;2.75;2.10;;;32.40;77.30;;;;;;5050408;28;20633;-68
2022/08/13 13:28:52;;;;;;;2.35;1.85;;;32.60;77.60;;;;;;5050672;28;20659;-69
2022/08/13 13:31:18;;;;;;;2.50;2.30;;;32.60;77.80;;;;;;5050968;28;20222;-69
2022/08/13 13:33:53;;;;;;;2.22;2.00;;;32.50;77.20;;;;;;5050825;28;20247;-69
2022/08/13 13:36:21;;;;;;;2.38;2.10;;;32.50;77.60;;;;;;5050229;28;20211;-69
2022/08/13 13:38:52;;;;;;;5.60;1.95;;;32.60;77.10;;;;;;5050823;28;20214;-69
2022/08/13 13:41:22;;;;;;;2.05;1.80;;;32.70;77.20;;;;;;5033654;28;20285;-69
2022/08/13 13:44:09;;;;;;;2.55;2.25;;;32.70;77.30;;;;;;5050761;28;20195;-68
2022/08/13 13:46:55;;;;;;;1.83;1.73;;;32.70;76.40;;;;;;5036297;28;20265;-69
2022/08/13 13:49:24;;;;;;;2.25;2.00;;;32.40;76.90;;;;;;5050846;28;20230;-69
2022/08/13 13:51:56;;;;;;;3.00;2.10;;;32.40;77.00;;;;;;5050684;28;20257;-68